createdAt,value
2019-04-06T00:01:40.759Z,33.57
2019-04-06T00:06:37.881Z,31.93
2019-04-06T00:11:34.966Z,31.17
2019-04-06T00:16:32.122Z,31.53
2019-04-06T00:21:29.216Z,29.67
2019-04-06T00:26:26.211Z,32.33
2019-04-06T00:31:26.346Z,28.17
2019-04-06T00:36:23.307Z,28.67
2019-04-06T00:41:20.690Z,27.40
2019-04-06T00:46:17.710Z,29.13
2019-04-06T00:51:14.934Z,31.27
2019-04-06T00:56:11.973Z,29.57
2019-04-06T01:01:09.010Z,31.40
2019-04-06T01:06:06.083Z,28.00
2019-04-06T01:11:03.090Z,27.23
2019-04-06T01:16:00.069Z,28.37
2019-04-06T01:20:57.178Z,28.40
2019-04-06T01:25:54.279Z,26.03
2019-04-06T01:30:51.337Z,29.70
2019-04-06T01:35:48.302Z,25.73
2019-04-06T01:40:45.619Z,24.97
2019-04-06T01:45:42.682Z,31.27
2019-04-06T01:50:39.858Z,28.77
2019-04-06T01:55:36.794Z,28.67
2019-04-06T02:00:35.645Z,30.97
2019-04-06T02:05:33.011Z,30.10
2019-04-06T02:10:30.078Z,32.73
2019-04-06T02:15:27.042Z,31.63
2019-04-06T02:20:24.070Z,27.43
2019-04-06T02:25:21.133Z,27.50
2019-04-06T02:30:28.851Z,28.43
2019-04-06T02:35:44.341Z,29.50
2019-04-06T02:40:55.123Z,27.47
2019-04-06T02:45:52.395Z,30.37
2019-04-06T02:50:51.402Z,31.10
2019-04-06T02:55:48.431Z,30.63
2019-04-06T03:00:45.549Z,32.57
2019-04-06T03:05:42.618Z,31.20
2019-04-06T03:10:39.647Z,33.47
2019-04-06T03:15:36.733Z,32.33
2019-04-06T03:20:35.669Z,33.60
2019-04-06T03:25:32.715Z,31.30
2019-04-06T03:30:30.303Z,34.93
2019-04-06T03:35:27.745Z,25.10
2019-04-06T03:40:25.045Z,30.67
2019-04-06T03:45:22.004Z,30.53
2019-04-06T03:50:20.189Z,30.00
2019-04-06T03:55:17.310Z,32.47
2019-04-06T04:00:14.858Z,31.17
2019-04-06T04:05:11.916Z,34.63
2019-04-06T04:10:13.014Z,34.43
2019-04-06T04:15:10.376Z,42.93
2019-04-06T04:20:07.896Z,44.60
2019-04-06T04:25:05.036Z,45.27
2019-04-06T04:30:03.355Z,46.03
2019-04-06T04:35:00.761Z,45.10
2019-04-06T04:40:01.891Z,37.00
2019-04-06T04:44:59.230Z,32.77
2019-04-06T04:49:58.507Z,33.47
2019-04-06T04:54:55.668Z,33.87
2019-04-06T04:59:54.142Z,31.57
2019-04-06T05:04:51.133Z,40.30
2019-04-06T05:09:48.186Z,33.37
2019-04-06T05:15:14.718Z,34.73
2019-04-06T05:20:13.604Z,37.03
2019-04-06T05:25:10.744Z,28.10
2019-04-06T05:30:08.887Z,26.37
2019-04-06T05:35:06.329Z,30.57
2019-04-06T05:40:05.527Z,29.03
2019-04-06T05:45:05.327Z,30.27
2019-04-06T05:50:04.314Z,27.73
2019-04-06T05:55:03.919Z,30.90
2019-04-06T06:00:10.502Z,37.70
2019-04-06T06:05:10.427Z,37.83
2019-04-06T06:10:08.434Z,33.60
2019-04-06T06:15:08.766Z,36.17
2019-04-06T06:20:05.992Z,33.53
2019-04-06T06:25:05.071Z,27.67
2019-04-06T06:30:05.428Z,31.70
2019-04-06T06:35:04.246Z,30.57
2019-04-06T06:40:01.279Z,43.43
2019-04-06T06:44:58.472Z,46.27
2019-04-06T06:49:55.581Z,29.00
2019-04-06T06:54:52.642Z,22.10
2019-04-06T06:59:51.213Z,19.83
2019-04-06T07:04:54.942Z,19.33
2019-04-06T07:10:04.696Z,18.97
2019-04-06T07:14:53.781Z,22.10
2019-04-06T07:19:54.459Z,24.93
2019-04-06T07:24:51.969Z,19.50
2019-04-06T07:29:49.008Z,18.13
2019-04-06T07:34:46.005Z,19.20
2019-04-06T07:39:43.047Z,18.53
2019-04-06T07:44:47.814Z,21.33
2019-04-06T07:49:59.624Z,18.67
2019-04-06T07:54:56.808Z,19.37
2019-04-06T07:59:55.753Z,20.83
2019-04-06T08:04:55.917Z,15.27
2019-04-06T08:09:54.662Z,18.53
2019-04-06T08:14:53.679Z,17.60
2019-04-06T08:19:50.904Z,15.47
2019-04-06T08:24:49.902Z,16.00
2019-04-06T08:29:49.300Z,15.93
2019-04-06T08:34:46.395Z,15.10
2019-04-06T08:39:43.505Z,13.73
2019-04-06T08:44:40.569Z,12.57
2019-04-06T08:49:39.621Z,12.27
2019-04-06T08:54:41.079Z,13.07
2019-04-06T08:59:35.814Z,14.30
2019-04-06T09:04:34.755Z,14.20
2019-04-06T09:09:34.991Z,14.10
2019-04-06T09:14:31.969Z,13.53
2019-04-06T09:19:29.100Z,11.87
2019-04-06T09:24:26.211Z,13.37
2019-04-06T09:29:24.653Z,11.53
2019-04-06T09:34:22.270Z,11.30
2019-04-06T09:39:19.340Z,11.03
2019-04-06T09:44:20.607Z,11.27
2019-04-06T09:49:19.637Z,11.37
2019-04-06T09:54:16.513Z,9.03
2019-04-06T09:59:15.505Z,12.23
2019-04-06T10:04:29.738Z,11.00
2019-04-06T10:09:39.170Z,11.33
2019-04-06T10:14:38.497Z,11.30
2019-04-06T10:19:54.456Z,10.03
2019-04-06T10:24:56.237Z,12.77
2019-04-06T10:30:08.961Z,11.07
2019-04-06T10:35:08.430Z,11.93
2019-04-06T10:40:07.459Z,9.63
2019-04-06T10:45:06.372Z,12.07
2019-04-06T10:50:15.046Z,11.47
2019-04-06T10:55:19.977Z,12.60
2019-04-06T11:00:26.346Z,11.40
2019-04-06T11:05:37.431Z,11.17
2019-04-06T11:10:36.018Z,11.37
2019-04-06T11:15:37.615Z,13.73
2019-04-06T11:20:55.449Z,13.10
2019-04-06T11:26:04.281Z,11.73
2019-04-06T11:31:18.170Z,12.93
2019-04-06T11:36:20.226Z,17.13
2019-04-06T11:41:26.212Z,15.67
2019-04-06T11:46:28.076Z,15.57
2019-04-06T11:51:35.680Z,13.40
2019-04-06T11:56:35.546Z,13.73
2019-04-06T12:01:36.985Z,14.50
2019-04-06T12:06:35.915Z,13.73
2019-04-06T12:11:52.936Z,13.20
2019-04-06T12:16:55.805Z,14.43
2019-04-06T12:22:09.851Z,18.63
2019-04-06T12:27:25.653Z,13.87
2019-04-06T12:32:41.487Z,12.43
2019-04-06T12:37:57.016Z,16.27
2019-04-06T12:43:12.112Z,18.50
2019-04-06T12:48:10.871Z,18.03
2019-04-06T12:53:26.071Z,16.13
2019-04-06T12:58:30.978Z,17.47
2019-04-06T13:03:41.000Z,17.90
2019-04-06T13:08:52.002Z,17.90
2019-04-06T13:13:50.872Z,18.17
2019-04-06T13:18:57.232Z,17.30
2019-04-06T13:24:12.556Z,15.83
2019-04-06T13:29:18.525Z,16.63
2019-04-06T13:34:17.487Z,16.53
2019-04-06T13:39:16.295Z,19.03
2019-04-06T13:44:28.344Z,17.90
2019-04-06T13:49:29.920Z,18.10
2019-04-06T13:54:37.676Z,18.70
2019-04-06T13:59:46.822Z,19.80
2019-04-06T14:04:48.917Z,19.73
2019-04-06T14:09:45.875Z,19.53
2019-04-06T14:14:53.651Z,16.03
2019-04-06T14:19:53.635Z,16.77
2019-04-06T14:24:52.871Z,17.90
2019-04-06T14:29:55.874Z,18.83
2019-04-06T14:34:59.274Z,20.90
2019-04-06T14:40:13.900Z,19.07
2019-04-06T14:45:10.869Z,18.87
2019-04-06T14:50:20.614Z,16.67
2019-04-06T14:55:21.452Z,21.43
2019-04-06T15:00:20.352Z,24.43
2019-04-06T15:05:19.204Z,20.67
2019-04-06T15:10:20.653Z,24.80
2019-04-06T15:15:20.925Z,31.50
2019-04-06T15:20:31.515Z,33.63
2019-04-06T15:25:33.261Z,26.47
2019-04-06T15:30:36.560Z,30.63
2019-04-06T15:35:51.681Z,41.63
2019-04-06T15:41:08.944Z,32.63
2019-04-06T15:46:07.804Z,39.13
2019-04-06T15:51:24.772Z,47.43
2019-04-06T15:56:40.392Z,40.40
2019-04-06T16:02:01.524Z,40.00
2019-04-06T16:07:15.473Z,40.73
2019-04-06T16:12:19.962Z,31.60
2019-04-06T16:17:24.055Z,28.23
2019-04-06T16:22:24.032Z,23.67
2019-04-06T16:27:24.853Z,26.63
2019-04-06T16:32:41.102Z,30.17
2019-04-06T16:37:48.287Z,25.40
2019-04-06T16:42:49.218Z,25.03
2019-04-06T16:48:02.057Z,31.27
2019-04-06T16:53:04.200Z,32.50
2019-04-06T16:58:21.831Z,29.97
2019-04-06T17:03:20.997Z,25.10
2019-04-06T17:08:25.921Z,23.07
2019-04-06T17:13:24.922Z,30.03
2019-04-06T17:18:23.917Z,29.43
2019-04-06T17:23:23.841Z,25.07
2019-04-06T17:28:23.915Z,25.33
2019-04-06T17:33:25.638Z,24.70
2019-04-06T17:38:37.322Z,21.83
2019-04-06T17:43:37.379Z,24.77
2019-04-06T17:48:45.366Z,26.63
2019-04-06T17:53:47.513Z,25.77
2019-04-06T17:58:52.554Z,23.17
2019-04-06T18:03:49.642Z,30.90
2019-04-06T18:08:48.578Z,49.10
2019-04-06T18:13:48.398Z,60.93
2019-04-06T18:18:45.665Z,46.70
2019-04-06T18:23:43.807Z,45.47
2019-04-06T18:28:41.701Z,51.60
2019-04-06T18:33:41.227Z,40.13
2019-04-06T18:38:42.726Z,33.30
2019-04-06T18:43:40.553Z,31.57
2019-04-06T18:48:38.431Z,38.90
2019-04-06T18:53:37.638Z,40.40
2019-04-06T18:58:35.474Z,35.77
2019-04-06T19:03:34.734Z,52.37
2019-04-06T19:08:32.365Z,36.30
2019-04-06T19:13:31.625Z,34.93
2019-04-06T19:18:28.799Z,21.63
2019-04-06T19:23:27.706Z,12.77
2019-04-06T19:28:25.731Z,9.07
2019-04-06T19:33:25.585Z,6.53
2019-04-06T19:38:22.266Z,7.83
2019-04-06T19:43:19.482Z,6.73
2019-04-06T19:48:16.624Z,6.50
2019-04-06T19:53:13.671Z,8.90
2019-04-06T19:58:10.842Z,8.17
2019-04-06T20:03:07.924Z,7.90
2019-04-06T20:08:05.105Z,7.00
2019-04-06T20:13:02.291Z,6.83
2019-04-06T20:17:59.504Z,6.87
2019-04-06T20:22:56.930Z,6.13
2019-04-06T20:27:54.311Z,5.47
2019-04-06T20:32:53.775Z,6.47
2019-04-06T20:37:51.131Z,7.60
2019-04-06T20:42:50.055Z,7.73
2019-04-06T20:47:47.638Z,12.23
2019-04-06T20:52:44.975Z,15.10
2019-04-06T20:57:42.631Z,14.83
2019-04-06T21:02:40.288Z,12.27
2019-04-06T21:07:37.411Z,9.60
2019-04-06T21:12:34.482Z,9.00
2019-04-06T21:17:31.568Z,10.90
2019-04-06T21:22:28.547Z,10.53
2019-04-06T21:27:26.101Z,9.43
2019-04-06T21:32:23.380Z,9.60
2019-04-06T21:37:22.043Z,8.03
2019-04-06T21:42:19.820Z,9.23
2019-04-06T21:47:16.882Z,7.10
2019-04-06T21:52:13.856Z,6.80
2019-04-06T21:57:10.967Z,10.13
2019-04-06T22:02:09.630Z,9.70
2019-04-06T22:07:06.808Z,6.93
2019-04-06T22:12:03.858Z,8.10
2019-04-06T22:17:01.497Z,7.10
2019-04-06T22:21:58.783Z,5.30
2019-04-06T22:26:56.389Z,5.53
2019-04-06T22:31:55.245Z,5.53
2019-04-06T22:36:52.665Z,6.43
2019-04-06T22:41:50.608Z,6.73
2019-04-06T22:46:47.740Z,5.87
2019-04-06T22:51:47.024Z,5.70
2019-04-06T22:56:44.238Z,5.93
2019-04-06T23:01:42.554Z,4.83
2019-04-06T23:06:41.597Z,6.57
2019-04-06T23:11:38.780Z,6.07
2019-04-06T23:16:35.846Z,8.60
2019-04-06T23:21:32.866Z,8.50
2019-04-06T23:26:30.678Z,6.53
2019-04-06T23:31:27.953Z,5.93
2019-04-06T23:36:25.055Z,6.77
2019-04-06T23:41:22.129Z,5.47
2019-04-06T23:46:19.311Z,6.20
2019-04-06T23:51:16.330Z,7.80
2019-04-06T23:56:13.732Z,8.37
